sensor_id;sensor_type;location;lat;lon;timestamp;P1;durP1;ratioP1;P2;durP2;ratioP2
18125;SDS011;53956;52.442;13.284;2023-03-31T00:01:50;6.70;;;3.20;;
18125;SDS011;53956;52.442;13.284;2023-03-31T00:04:18;6.23;;;3.10;;
18125;SDS011;53956;52.442;13.284;2023-03-31T00:06:48;6.83;;;3.00;;
18125;SDS011;53956;52.442;13.284;2023-03-31T00:09:18;8.20;;;3.17;;
18125;SDS011;53956;52.442;13.284;2023-03-31T00:11:46;6.87;;;2.90;;
18125;SDS011;53956;52.442;13.284;2023-03-31T00:14:13;5.40;;;3.10;;
18125;SDS011;53956;52.442;13.284;2023-03-31T00:16:43;6.83;;;2.97;;
18125;SDS011;53956;52.442;13.284;2023-03-31T00:19:11;5.60;;;3.00;;
18125;SDS011;53956;52.442;13.284;2023-03-31T00:21:42;9.30;;;3.10;;
18125;SDS011;53956;52.442;13.284;2023-03-31T00:24:09;6.20;;;2.90;;
18125;SDS011;53956;52.442;13.284;2023-03-31T00:26:37;7.47;;;3.17;;
18125;SDS011;53956;52.442;13.284;2023-03-31T00:29:05;7.20;;;3.00;;
18125;SDS011;53956;52.442;13.284;2023-03-31T00:31:33;6.07;;;2.83;;
18125;SDS011;53956;52.442;13.284;2023-03-31T00:34:01;7.50;;;2.93;;
18125;SDS011;53956;52.442;13.284;2023-03-31T00:36:28;7.63;;;2.77;;
18125;SDS011;53956;52.442;13.284;2023-03-31T00:38:55;4.60;;;2.67;;
18125;SDS011;53956;52.442;13.284;2023-03-31T00:41:25;4.70;;;2.60;;
18125;SDS011;53956;52.442;13.284;2023-03-31T00:44:00;6.27;;;2.70;;
18125;SDS011;53956;52.442;13.284;2023-03-31T00:46:32;4.57;;;2.43;;
18125;SDS011;53956;52.442;13.284;2023-03-31T00:49:02;7.70;;;3.00;;
18125;SDS011;53956;52.442;13.284;2023-03-31T00:51:29;6.80;;;2.60;;
18125;SDS011;53956;52.442;13.284;2023-03-31T00:53:59;7.93;;;3.20;;
18125;SDS011;53956;52.442;13.284;2023-03-31T00:56:30;6.57;;;2.80;;
18125;SDS011;53956;52.442;13.284;2023-03-31T00:59:01;4.67;;;2.43;;
18125;SDS011;53956;52.442;13.284;2023-03-31T01:01:32;4.50;;;2.53;;
18125;SDS011;53956;52.442;13.284;2023-03-31T01:04:01;3.73;;;2.40;;
18125;SDS011;53956;52.442;13.284;2023-03-31T01:06:29;7.63;;;2.73;;
18125;SDS011;53956;52.442;13.284;2023-03-31T01:08:56;7.43;;;2.47;;
18125;SDS011;53956;52.442;13.284;2023-03-31T01:11:23;6.53;;;2.60;;
18125;SDS011;53956;52.442;13.284;2023-03-31T01:13:54;6.60;;;2.63;;
18125;SDS011;53956;52.442;13.284;2023-03-31T01:16:22;6.53;;;2.43;;
18125;SDS011;53956;52.442;13.284;2023-03-31T01:18:49;7.37;;;2.40;;
18125;SDS011;53956;52.442;13.284;2023-03-31T01:21:33;4.53;;;2.23;;
18125;SDS011;53956;52.442;13.284;2023-03-31T01:27:40;6.03;;;2.60;;
18125;SDS011;53956;52.442;13.284;2023-03-31T01:30:23;6.97;;;2.70;;
18125;SDS011;53956;52.442;13.284;2023-03-31T01:39:40;5.50;;;2.27;;
18125;SDS011;53956;52.442;13.284;2023-03-31T01:42:27;6.83;;;2.50;;
18125;SDS011;53956;52.442;13.284;2023-03-31T01:45:00;7.30;;;2.40;;
18125;SDS011;53956;52.442;13.284;2023-03-31T01:47:32;6.93;;;2.30;;
18125;SDS011;53956;52.442;13.284;2023-03-31T01:50:05;4.83;;;2.20;;
18125;SDS011;53956;52.442;13.284;2023-03-31T01:52:36;6.97;;;2.53;;
18125;SDS011;53956;52.442;13.284;2023-03-31T01:55:12;7.97;;;2.43;;
18125;SDS011;53956;52.442;13.284;2023-03-31T01:57:46;5.70;;;2.17;;
18125;SDS011;53956;52.442;13.284;2023-03-31T02:00:16;5.90;;;2.23;;
18125;SDS011;53956;52.442;13.284;2023-03-31T02:02:48;4.70;;;2.07;;
18125;SDS011;53956;52.442;13.284;2023-03-31T02:05:22;3.10;;;2.00;;
18125;SDS011;53956;52.442;13.284;2023-03-31T02:07:51;3.63;;;2.20;;
18125;SDS011;53956;52.442;13.284;2023-03-31T02:10:23;6.97;;;2.20;;
18125;SDS011;53956;52.442;13.284;2023-03-31T02:12:56;4.87;;;2.20;;
18125;SDS011;53956;52.442;13.284;2023-03-31T02:15:25;3.27;;;2.10;;
18125;SDS011;53956;52.442;13.284;2023-03-31T02:17:56;7.77;;;2.20;;
18125;SDS011;53956;52.442;13.284;2023-03-31T02:20:25;2.40;;;2.10;;
18125;SDS011;53956;52.442;13.284;2023-03-31T02:22:56;5.27;;;2.30;;
18125;SDS011;53956;52.442;13.284;2023-03-31T02:25:27;7.00;;;1.93;;
18125;SDS011;53956;52.442;13.284;2023-03-31T02:27:59;4.97;;;2.20;;
18125;SDS011;53956;52.442;13.284;2023-03-31T02:30:29;4.10;;;2.23;;
18125;SDS011;53956;52.442;13.284;2023-03-31T02:33:04;5.30;;;2.23;;
18125;SDS011;53956;52.442;13.284;2023-03-31T02:35:30;4.20;;;2.00;;
18125;SDS011;53956;52.442;13.284;2023-03-31T02:38:01;4.70;;;2.10;;
18125;SDS011;53956;52.442;13.284;2023-03-31T02:40:32;5.50;;;2.00;;
18125;SDS011;53956;52.442;13.284;2023-03-31T02:42:58;7.97;;;2.17;;
18125;SDS011;53956;52.442;13.284;2023-03-31T02:45:37;8.20;;;2.40;;
18125;SDS011;53956;52.442;13.284;2023-03-31T02:48:07;6.70;;;2.20;;
18125;SDS011;53956;52.442;13.284;2023-03-31T02:50:40;4.20;;;2.10;;
18125;SDS011;53956;52.442;13.284;2023-03-31T02:53:25;4.63;;;1.93;;
18125;SDS011;53956;52.442;13.284;2023-03-31T02:56:06;5.13;;;1.90;;
18125;SDS011;53956;52.442;13.284;2023-03-31T02:58:45;5.93;;;2.20;;
18125;SDS011;53956;52.442;13.284;2023-03-31T03:01:29;6.03;;;2.10;;
18125;SDS011;53956;52.442;13.284;2023-03-31T03:04:10;5.53;;;2.10;;
18125;SDS011;53956;52.442;13.284;2023-03-31T03:06:51;7.20;;;2.10;;
18125;SDS011;53956;52.442;13.284;2023-03-31T03:09:28;5.10;;;2.10;;
18125;SDS011;53956;52.442;13.284;2023-03-31T03:12:06;3.47;;;2.03;;
18125;SDS011;53956;52.442;13.284;2023-03-31T03:14:38;6.87;;;1.97;;
18125;SDS011;53956;52.442;13.284;2023-03-31T03:17:13;5.87;;;2.10;;
18125;SDS011;53956;52.442;13.284;2023-03-31T03:19:49;4.17;;;1.90;;
18125;SDS011;53956;52.442;13.284;2023-03-31T03:22:18;5.50;;;2.00;;
18125;SDS011;53956;52.442;13.284;2023-03-31T03:24:45;6.27;;;2.57;;
18125;SDS011;53956;52.442;13.284;2023-03-31T03:27:14;4.57;;;2.20;;
18125;SDS011;53956;52.442;13.284;2023-03-31T03:29:40;3.70;;;2.17;;
18125;SDS011;53956;52.442;13.284;2023-03-31T03:32:08;5.30;;;2.33;;
18125;SDS011;53956;52.442;13.284;2023-03-31T03:34:35;5.70;;;1.93;;
18125;SDS011;53956;52.442;13.284;2023-03-31T03:37:02;4.03;;;2.30;;
18125;SDS011;53956;52.442;13.284;2023-03-31T03:39:28;5.73;;;2.30;;
18125;SDS011;53956;52.442;13.284;2023-03-31T03:41:55;4.30;;;2.03;;
18125;SDS011;53956;52.442;13.284;2023-03-31T03:44:23;4.97;;;2.40;;
18125;SDS011;53956;52.442;13.284;2023-03-31T03:46:50;4.10;;;1.90;;
18125;SDS011;53956;52.442;13.284;2023-03-31T03:49:16;5.93;;;2.30;;
18125;SDS011;53956;52.442;13.284;2023-03-31T03:51:44;4.17;;;1.83;;
18125;SDS011;53956;52.442;13.284;2023-03-31T03:54:11;4.20;;;2.10;;
18125;SDS011;53956;52.442;13.284;2023-03-31T03:56:37;3.97;;;2.03;;
18125;SDS011;53956;52.442;13.284;2023-03-31T03:59:04;5.97;;;2.27;;
18125;SDS011;53956;52.442;13.284;2023-03-31T04:01:32;6.93;;;2.23;;
18125;SDS011;53956;52.442;13.284;2023-03-31T04:04:00;5.37;;;2.20;;
18125;SDS011;53956;52.442;13.284;2023-03-31T04:06:26;6.00;;;2.23;;
18125;SDS011;53956;52.442;13.284;2023-03-31T04:08:53;7.60;;;2.30;;
18125;SDS011;53956;52.442;13.284;2023-03-31T04:11:19;3.47;;;2.00;;
18125;SDS011;53956;52.442;13.284;2023-03-31T04:13:46;4.60;;;2.10;;
18125;SDS011;53956;52.442;13.284;2023-03-31T04:16:13;5.20;;;2.30;;
18125;SDS011;53956;52.442;13.284;2023-03-31T04:18:42;8.50;;;2.20;;
18125;SDS011;53956;52.442;13.284;2023-03-31T04:21:08;4.60;;;2.30;;
18125;SDS011;53956;52.442;13.284;2023-03-31T04:23:39;6.20;;;2.40;;
18125;SDS011;53956;52.442;13.284;2023-03-31T04:26:10;5.73;;;2.50;;
18125;SDS011;53956;52.442;13.284;2023-03-31T04:28:37;4.93;;;2.33;;
18125;SDS011;53956;52.442;13.284;2023-03-31T04:31:07;4.60;;;2.20;;
18125;SDS011;53956;52.442;13.284;2023-03-31T04:33:41;5.83;;;2.40;;
18125;SDS011;53956;52.442;13.284;2023-03-31T04:36:10;4.23;;;2.07;;
18125;SDS011;53956;52.442;13.284;2023-03-31T04:38:42;6.77;;;2.50;;
18125;SDS011;53956;52.442;13.284;2023-03-31T04:41:10;5.10;;;2.33;;
18125;SDS011;53956;52.442;13.284;2023-03-31T04:43:38;5.33;;;2.50;;
18125;SDS011;53956;52.442;13.284;2023-03-31T04:46:05;5.47;;;2.47;;
18125;SDS011;53956;52.442;13.284;2023-03-31T04:48:31;5.37;;;2.40;;
18125;SDS011;53956;52.442;13.284;2023-03-31T04:50:59;6.20;;;2.60;;
18125;SDS011;53956;52.442;13.284;2023-03-31T04:53:26;5.13;;;2.30;;
18125;SDS011;53956;52.442;13.284;2023-03-31T04:55:53;5.63;;;2.37;;
18125;SDS011;53956;52.442;13.284;2023-03-31T04:58:20;7.93;;;2.13;;
18125;SDS011;53956;52.442;13.284;2023-03-31T05:00:46;5.60;;;2.60;;
18125;SDS011;53956;52.442;13.284;2023-03-31T05:03:13;8.87;;;2.60;;
18125;SDS011;53956;52.442;13.284;2023-03-31T05:05:40;7.50;;;2.63;;
18125;SDS011;53956;52.442;13.284;2023-03-31T05:08:08;6.93;;;2.53;;
18125;SDS011;53956;52.442;13.284;2023-03-31T05:10:35;6.90;;;3.17;;
18125;SDS011;53956;52.442;13.284;2023-03-31T05:13:02;4.10;;;2.50;;
18125;SDS011;53956;52.442;13.284;2023-03-31T05:15:28;8.07;;;3.00;;
18125;SDS011;53956;52.442;13.284;2023-03-31T05:17:56;6.97;;;3.00;;
18125;SDS011;53956;52.442;13.284;2023-03-31T05:20:23;5.67;;;2.50;;
18125;SDS011;53956;52.442;13.284;2023-03-31T05:22:50;6.00;;;2.80;;
18125;SDS011;53956;52.442;13.284;2023-03-31T05:25:18;6.50;;;2.40;;
18125;SDS011;53956;52.442;13.284;2023-03-31T05:27:45;6.63;;;2.70;;
18125;SDS011;53956;52.442;13.284;2023-03-31T05:30:13;5.53;;;3.00;;
18125;SDS011;53956;52.442;13.284;2023-03-31T05:32:40;8.70;;;3.63;;
18125;SDS011;53956;52.442;13.284;2023-03-31T05:35:07;9.13;;;3.60;;
18125;SDS011;53956;52.442;13.284;2023-03-31T05:37:34;8.40;;;3.30;;
18125;SDS011;53956;52.442;13.284;2023-03-31T05:40:01;6.87;;;2.80;;
18125;SDS011;53956;52.442;13.284;2023-03-31T05:42:31;6.70;;;3.00;;
18125;SDS011;53956;52.442;13.284;2023-03-31T05:44:57;8.27;;;3.00;;
18125;SDS011;53956;52.442;13.284;2023-03-31T05:47:24;6.23;;;2.50;;
18125;SDS011;53956;52.442;13.284;2023-03-31T05:49:50;5.50;;;2.33;;
18125;SDS011;53956;52.442;13.284;2023-03-31T05:52:17;6.60;;;2.73;;
18125;SDS011;53956;52.442;13.284;2023-03-31T05:54:44;4.53;;;2.30;;
18125;SDS011;53956;52.442;13.284;2023-03-31T05:57:11;5.55;;;2.25;;
18125;SDS011;53956;52.442;13.284;2023-03-31T05:59:39;6.40;;;2.40;;
18125;SDS011;53956;52.442;13.284;2023-03-31T06:02:07;5.57;;;2.65;;
18125;SDS011;53956;52.442;13.284;2023-03-31T06:04:36;5.30;;;2.50;;
18125;SDS011;53956;52.442;13.284;2023-03-31T06:07:03;6.60;;;2.67;;
18125;SDS011;53956;52.442;13.284;2023-03-31T06:09:30;7.63;;;2.70;;
18125;SDS011;53956;52.442;13.284;2023-03-31T06:11:57;5.67;;;2.60;;
18125;SDS011;53956;52.442;13.284;2023-03-31T06:14:23;5.60;;;2.80;;
18125;SDS011;53956;52.442;13.284;2023-03-31T06:16:53;8.87;;;3.10;;
18125;SDS011;53956;52.442;13.284;2023-03-31T06:19:20;7.47;;;2.78;;
18125;SDS011;53956;52.442;13.284;2023-03-31T06:21:46;6.13;;;2.92;;
18125;SDS011;53956;52.442;13.284;2023-03-31T06:24:13;8.30;;;3.65;;
18125;SDS011;53956;52.442;13.284;2023-03-31T06:26:40;6.57;;;3.13;;
18125;SDS011;53956;52.442;13.284;2023-03-31T06:29:06;7.47;;;2.95;;
18125;SDS011;53956;52.442;13.284;2023-03-31T06:31:33;6.45;;;2.50;;
18125;SDS011;53956;52.442;13.284;2023-03-31T06:34:01;9.10;;;2.50;;
18125;SDS011;53956;52.442;13.284;2023-03-31T06:36:28;6.00;;;2.22;;
18125;SDS011;53956;52.442;13.284;2023-03-31T06:38:55;7.18;;;2.22;;
18125;SDS011;53956;52.442;13.284;2023-03-31T06:41:21;5.88;;;2.45;;
18125;SDS011;53956;52.442;13.284;2023-03-31T06:43:48;6.55;;;2.45;;
18125;SDS011;53956;52.442;13.284;2023-03-31T06:46:16;7.88;;;2.33;;
18125;SDS011;53956;52.442;13.284;2023-03-31T06:48:42;7.15;;;2.42;;
18125;SDS011;53956;52.442;13.284;2023-03-31T06:51:11;5.82;;;1.77;;
18125;SDS011;53956;52.442;13.284;2023-03-31T06:53:38;6.75;;;2.50;;
18125;SDS011;53956;52.442;13.284;2023-03-31T06:56:05;5.43;;;2.47;;
18125;SDS011;53956;52.442;13.284;2023-03-31T06:58:32;7.70;;;2.47;;
18125;SDS011;53956;52.442;13.284;2023-03-31T07:01:00;8.65;;;2.60;;
18125;SDS011;53956;52.442;13.284;2023-03-31T07:03:28;6.10;;;1.98;;
18125;SDS011;53956;52.442;13.284;2023-03-31T07:05:55;8.57;;;2.60;;
18125;SDS011;53956;52.442;13.284;2023-03-31T07:08:23;5.75;;;1.70;;
18125;SDS011;53956;52.442;13.284;2023-03-31T07:10:52;5.72;;;1.83;;
18125;SDS011;53956;52.442;13.284;2023-03-31T07:13:22;10.35;;;3.38;;
18125;SDS011;53956;52.442;13.284;2023-03-31T07:15:49;5.32;;;1.80;;
18125;SDS011;53956;52.442;13.284;2023-03-31T07:18:16;4.93;;;1.58;;
18125;SDS011;53956;52.442;13.284;2023-03-31T07:20:43;5.03;;;1.70;;
18125;SDS011;53956;52.442;13.284;2023-03-31T07:23:13;5.88;;;1.88;;
18125;SDS011;53956;52.442;13.284;2023-03-31T07:25:41;5.75;;;1.65;;
18125;SDS011;53956;52.442;13.284;2023-03-31T07:28:08;5.35;;;1.52;;
18125;SDS011;53956;52.442;13.284;2023-03-31T07:30:35;3.45;;;1.70;;
18125;SDS011;53956;52.442;13.284;2023-03-31T07:33:01;5.28;;;1.52;;
18125;SDS011;53956;52.442;13.284;2023-03-31T07:35:28;6.05;;;1.80;;
18125;SDS011;53956;52.442;13.284;2023-03-31T07:37:55;7.13;;;2.08;;
18125;SDS011;53956;52.442;13.284;2023-03-31T07:40:22;7.28;;;2.30;;
18125;SDS011;53956;52.442;13.284;2023-03-31T07:42:52;8.05;;;1.80;;
18125;SDS011;53956;52.442;13.284;2023-03-31T07:45:19;5.07;;;1.40;;
18125;SDS011;53956;52.442;13.284;2023-03-31T07:47:47;5.40;;;1.50;;
18125;SDS011;53956;52.442;13.284;2023-03-31T07:50:14;5.35;;;1.60;;
18125;SDS011;53956;52.442;13.284;2023-03-31T07:52:41;5.55;;;1.58;;
18125;SDS011;53956;52.442;13.284;2023-03-31T07:55:09;4.45;;;1.50;;
18125;SDS011;53956;52.442;13.284;2023-03-31T07:57:36;6.68;;;1.80;;
18125;SDS011;53956;52.442;13.284;2023-03-31T08:00:06;4.80;;;2.00;;
18125;SDS011;53956;52.442;13.284;2023-03-31T08:02:39;6.38;;;2.00;;
18125;SDS011;53956;52.442;13.284;2023-03-31T08:05:07;7.00;;;2.10;;
18125;SDS011;53956;52.442;13.284;2023-03-31T08:07:35;4.25;;;1.80;;
18125;SDS011;53956;52.442;13.284;2023-03-31T08:10:04;8.80;;;2.10;;
18125;SDS011;53956;52.442;13.284;2023-03-31T08:12:31;7.25;;;1.75;;
18125;SDS011;53956;52.442;13.284;2023-03-31T08:14:58;6.97;;;2.03;;
18125;SDS011;53956;52.442;13.284;2023-03-31T08:17:26;6.57;;;1.90;;
18125;SDS011;53956;52.442;13.284;2023-03-31T08:19:53;4.38;;;1.60;;
18125;SDS011;53956;52.442;13.284;2023-03-31T08:22:20;6.97;;;1.70;;
18125;SDS011;53956;52.442;13.284;2023-03-31T08:24:47;6.28;;;1.88;;
18125;SDS011;53956;52.442;13.284;2023-03-31T08:27:14;7.53;;;2.10;;
18125;SDS011;53956;52.442;13.284;2023-03-31T08:29:40;4.65;;;1.80;;
18125;SDS011;53956;52.442;13.284;2023-03-31T08:32:07;8.13;;;2.15;;
18125;SDS011;53956;52.442;13.284;2023-03-31T08:34:35;4.85;;;1.80;;
18125;SDS011;53956;52.442;13.284;2023-03-31T08:37:02;6.82;;;2.08;;
18125;SDS011;53956;52.442;13.284;2023-03-31T08:39:28;4.88;;;1.88;;
18125;SDS011;53956;52.442;13.284;2023-03-31T08:41:56;7.70;;;1.80;;
18125;SDS011;53956;52.442;13.284;2023-03-31T08:44:26;6.05;;;2.08;;
18125;SDS011;53956;52.442;13.284;2023-03-31T08:46:56;5.63;;;1.83;;
18125;SDS011;53956;52.442;13.284;2023-03-31T08:49:24;6.13;;;2.20;;
18125;SDS011;53956;52.442;13.284;2023-03-31T08:51:55;5.35;;;2.10;;
18125;SDS011;53956;52.442;13.284;2023-03-31T08:54:28;8.07;;;2.17;;
18125;SDS011;53956;52.442;13.284;2023-03-31T08:56:58;6.85;;;2.38;;
18125;SDS011;53956;52.442;13.284;2023-03-31T08:59:26;5.18;;;2.25;;
18125;SDS011;53956;52.442;13.284;2023-03-31T09:01:57;7.07;;;2.63;;
18125;SDS011;53956;52.442;13.284;2023-03-31T09:04:55;5.78;;;2.25;;
18125;SDS011;53956;52.442;13.284;2023-03-31T09:07:42;7.32;;;2.08;;
18125;SDS011;53956;52.442;13.284;2023-03-31T09:10:21;6.70;;;1.75;;
18125;SDS011;53956;52.442;13.284;2023-03-31T09:13:00;5.15;;;1.85;;
18125;SDS011;53956;52.442;13.284;2023-03-31T09:15:35;6.78;;;2.10;;
18125;SDS011;53956;52.442;13.284;2023-03-31T09:18:10;6.68;;;2.17;;
18125;SDS011;53956;52.442;13.284;2023-03-31T09:20:41;5.38;;;2.05;;
18125;SDS011;53956;52.442;13.284;2023-03-31T09:23:15;6.78;;;1.95;;
18125;SDS011;53956;52.442;13.284;2023-03-31T09:25:48;7.25;;;2.15;;
18125;SDS011;53956;52.442;13.284;2023-03-31T09:28:17;4.78;;;2.13;;
18125;SDS011;53956;52.442;13.284;2023-03-31T09:30:45;5.78;;;2.13;;
18125;SDS011;53956;52.442;13.284;2023-03-31T09:33:15;5.95;;;2.17;;
18125;SDS011;53956;52.442;13.284;2023-03-31T09:35:43;8.60;;;2.50;;
18125;SDS011;53956;52.442;13.284;2023-03-31T09:38:11;8.57;;;2.22;;
18125;SDS011;53956;52.442;13.284;2023-03-31T09:40:39;10.23;;;2.50;;
18125;SDS011;53956;52.442;13.284;2023-03-31T09:43:08;5.53;;;2.20;;
18125;SDS011;53956;52.442;13.284;2023-03-31T09:45:43;7.80;;;2.30;;
18125;SDS011;53956;52.442;13.284;2023-03-31T09:48:11;7.63;;;2.35;;
18125;SDS011;53956;52.442;13.284;2023-03-31T09:50:42;6.18;;;2.30;;
18125;SDS011;53956;52.442;13.284;2023-03-31T09:53:13;7.03;;;2.58;;
18125;SDS011;53956;52.442;13.284;2023-03-31T09:55:45;7.03;;;2.35;;
18125;SDS011;53956;52.442;13.284;2023-03-31T09:58:17;6.68;;;2.22;;
18125;SDS011;53956;52.442;13.284;2023-03-31T10:00:54;6.63;;;2.15;;
18125;SDS011;53956;52.442;13.284;2023-03-31T10:03:23;7.20;;;2.15;;
18125;SDS011;53956;52.442;13.284;2023-03-31T10:05:53;7.45;;;2.50;;
18125;SDS011;53956;52.442;13.284;2023-03-31T10:08:25;4.50;;;2.60;;
18125;SDS011;53956;52.442;13.284;2023-03-31T10:10:55;8.95;;;3.30;;
18125;SDS011;53956;52.442;13.284;2023-03-31T10:13:23;6.70;;;3.22;;
18125;SDS011;53956;52.442;13.284;2023-03-31T10:15:53;5.57;;;3.28;;
18125;SDS011;53956;52.442;13.284;2023-03-31T10:18:30;6.10;;;3.10;;
18125;SDS011;53956;52.442;13.284;2023-03-31T10:20:59;7.28;;;3.28;;
18125;SDS011;53956;52.442;13.284;2023-03-31T10:23:30;6.38;;;3.60;;
18125;SDS011;53956;52.442;13.284;2023-03-31T10:25:59;8.23;;;3.97;;
18125;SDS011;53956;52.442;13.284;2023-03-31T10:28:29;7.38;;;3.60;;
18125;SDS011;53956;52.442;13.284;2023-03-31T10:30:58;9.45;;;3.60;;
18125;SDS011;53956;52.442;13.284;2023-03-31T10:33:27;7.15;;;3.50;;
18125;SDS011;53956;52.442;13.284;2023-03-31T10:36:00;8.95;;;3.60;;
18125;SDS011;53956;52.442;13.284;2023-03-31T10:38:34;4.28;;;3.30;;
18125;SDS011;53956;52.442;13.284;2023-03-31T10:41:04;6.60;;;3.35;;
18125;SDS011;53956;52.442;13.284;2023-03-31T10:43:33;5.13;;;3.10;;
18125;SDS011;53956;52.442;13.284;2023-03-31T10:46:02;13.18;;;3.80;;
18125;SDS011;53956;52.442;13.284;2023-03-31T10:48:30;13.70;;;3.78;;
18125;SDS011;53956;52.442;13.284;2023-03-31T10:50:58;5.25;;;3.42;;
18125;SDS011;53956;52.442;13.284;2023-03-31T10:53:26;4.65;;;2.85;;
18125;SDS011;53956;52.442;13.284;2023-03-31T10:56:00;7.10;;;3.40;;
18125;SDS011;53956;52.442;13.284;2023-03-31T10:58:38;7.43;;;3.38;;
18125;SDS011;53956;52.442;13.284;2023-03-31T11:01:21;5.67;;;3.30;;
18125;SDS011;53956;52.442;13.284;2023-03-31T11:06:56;6.43;;;2.70;;
18125;SDS011;53956;52.442;13.284;2023-03-31T11:09:32;7.03;;;2.70;;
18125;SDS011;53956;52.442;13.284;2023-03-31T11:12:13;4.88;;;2.08;;
18125;SDS011;53956;52.442;13.284;2023-03-31T11:14:49;5.55;;;2.40;;
18125;SDS011;53956;52.442;13.284;2023-03-31T11:17:30;6.05;;;2.05;;
18125;SDS011;53956;52.442;13.284;2023-03-31T11:20:09;5.13;;;1.92;;
18125;SDS011;53956;52.442;13.284;2023-03-31T11:22:43;7.00;;;2.40;;
18125;SDS011;53956;52.442;13.284;2023-03-31T11:25:26;6.32;;;2.47;;
18125;SDS011;53956;52.442;13.284;2023-03-31T11:30:56;6.65;;;2.58;;
18125;SDS011;53956;52.442;13.284;2023-03-31T11:33:36;7.57;;;2.70;;
18125;SDS011;53956;52.442;13.284;2023-03-31T11:36:15;9.32;;;2.67;;
18125;SDS011;53956;52.442;13.284;2023-03-31T11:39:02;19.23;;;4.45;;
18125;SDS011;53956;52.442;13.284;2023-03-31T11:41:49;6.75;;;3.00;;
18125;SDS011;53956;52.442;13.284;2023-03-31T11:44:20;8.68;;;3.67;;
18125;SDS011;53956;52.442;13.284;2023-03-31T11:46:50;8.82;;;3.38;;
18125;SDS011;53956;52.442;13.284;2023-03-31T11:49:21;7.40;;;3.45;;
18125;SDS011;53956;52.442;13.284;2023-03-31T11:51:52;7.53;;;3.83;;
18125;SDS011;53956;52.442;13.284;2023-03-31T11:54:23;9.65;;;3.65;;
18125;SDS011;53956;52.442;13.284;2023-03-31T11:56:53;10.52;;;3.80;;
18125;SDS011;53956;52.442;13.284;2023-03-31T11:59:22;7.60;;;3.57;;
18125;SDS011;53956;52.442;13.284;2023-03-31T12:01:55;7.35;;;3.55;;
18125;SDS011;53956;52.442;13.284;2023-03-31T12:04:28;5.77;;;3.17;;
18125;SDS011;53956;52.442;13.284;2023-03-31T12:07:02;6.07;;;4.70;;
18125;SDS011;53956;52.442;13.284;2023-03-31T12:09:34;7.47;;;3.88;;
18125;SDS011;53956;52.442;13.284;2023-03-31T12:12:06;8.30;;;3.53;;
18125;SDS011;53956;52.442;13.284;2023-03-31T12:14:40;5.88;;;2.78;;
18125;SDS011;53956;52.442;13.284;2023-03-31T12:17:11;8.85;;;3.40;;
18125;SDS011;53956;52.442;13.284;2023-03-31T12:19:43;5.82;;;2.80;;
18125;SDS011;53956;52.442;13.284;2023-03-31T12:22:14;6.67;;;2.70;;
18125;SDS011;53956;52.442;13.284;2023-03-31T12:24:44;6.75;;;2.88;;
18125;SDS011;53956;52.442;13.284;2023-03-31T12:27:12;5.00;;;3.15;;
18125;SDS011;53956;52.442;13.284;2023-03-31T12:29:44;6.72;;;3.30;;
18125;SDS011;53956;52.442;13.284;2023-03-31T12:32:14;6.45;;;3.10;;
18125;SDS011;53956;52.442;13.284;2023-03-31T12:34:44;5.38;;;3.67;;
18125;SDS011;53956;52.442;13.284;2023-03-31T12:37:27;5.32;;;3.25;;
18125;SDS011;53956;52.442;13.284;2023-03-31T12:40:38;4.70;;;3.20;;
18125;SDS011;53956;52.442;13.284;2023-03-31T12:43:21;4.70;;;3.07;;
18125;SDS011;53956;52.442;13.284;2023-03-31T12:46:15;6.50;;;3.30;;
18125;SDS011;53956;52.442;13.284;2023-03-31T12:48:53;5.43;;;2.97;;
18125;SDS011;53956;52.442;13.284;2023-03-31T12:51:51;4.83;;;3.07;;
18125;SDS011;53956;52.442;13.284;2023-03-31T12:54:31;4.70;;;3.57;;
18125;SDS011;53956;52.442;13.284;2023-03-31T12:57:24;9.93;;;3.97;;
18125;SDS011;53956;52.442;13.284;2023-03-31T13:02:52;7.00;;;3.80;;
18125;SDS011;53956;52.442;13.284;2023-03-31T13:06:01;7.70;;;4.30;;
18125;SDS011;53956;52.442;13.284;2023-03-31T13:08:48;5.97;;;3.93;;
18125;SDS011;53956;52.442;13.284;2023-03-31T13:11:19;9.67;;;4.53;;
18125;SDS011;53956;52.442;13.284;2023-03-31T13:13:51;6.03;;;4.27;;
18125;SDS011;53956;52.442;13.284;2023-03-31T13:16:25;7.33;;;4.43;;
18125;SDS011;53956;52.442;13.284;2023-03-31T13:18:53;8.83;;;4.37;;
18125;SDS011;53956;52.442;13.284;2023-03-31T13:21:21;6.57;;;4.80;;
18125;SDS011;53956;52.442;13.284;2023-03-31T13:23:48;8.10;;;4.80;;
18125;SDS011;53956;52.442;13.284;2023-03-31T13:26:35;7.20;;;4.40;;
18125;SDS011;53956;52.442;13.284;2023-03-31T13:29:15;8.13;;;4.40;;
18125;SDS011;53956;52.442;13.284;2023-03-31T13:34:56;7.30;;;4.23;;
18125;SDS011;53956;52.442;13.284;2023-03-31T13:37:29;7.57;;;3.60;;
18125;SDS011;53956;52.442;13.284;2023-03-31T13:40:25;4.17;;;3.40;;
18125;SDS011;53956;52.442;13.284;2023-03-31T13:46:06;6.37;;;3.30;;
18125;SDS011;53956;52.442;13.284;2023-03-31T13:48:55;5.17;;;2.90;;
18125;SDS011;53956;52.442;13.284;2023-03-31T13:51:33;4.90;;;2.63;;
18125;SDS011;53956;52.442;13.284;2023-03-31T13:54:18;3.83;;;2.70;;
18125;SDS011;53956;52.442;13.284;2023-03-31T14:00:09;6.27;;;2.73;;
18125;SDS011;53956;52.442;13.284;2023-03-31T14:02:51;4.63;;;3.03;;
18125;SDS011;53956;52.442;13.284;2023-03-31T14:05:31;5.73;;;3.00;;
18125;SDS011;53956;52.442;13.284;2023-03-31T14:08:04;3.93;;;2.37;;
18125;SDS011;53956;52.442;13.284;2023-03-31T14:10:36;4.13;;;2.40;;
18125;SDS011;53956;52.442;13.284;2023-03-31T14:13:05;4.60;;;2.63;;
18125;SDS011;53956;52.442;13.284;2023-03-31T14:15:34;4.87;;;2.57;;
18125;SDS011;53956;52.442;13.284;2023-03-31T14:18:02;4.60;;;2.23;;
18125;SDS011;53956;52.442;13.284;2023-03-31T14:20:32;4.00;;;2.10;;
18125;SDS011;53956;52.442;13.284;2023-03-31T14:23:12;4.00;;;2.37;;
18125;SDS011;53956;52.442;13.284;2023-03-31T14:25:48;3.47;;;2.00;;
18125;SDS011;53956;52.442;13.284;2023-03-31T14:28:24;3.57;;;2.17;;
18125;SDS011;53956;52.442;13.284;2023-03-31T14:31:06;3.90;;;2.20;;
18125;SDS011;53956;52.442;13.284;2023-03-31T14:33:45;4.90;;;2.20;;
18125;SDS011;53956;52.442;13.284;2023-03-31T14:36:24;2.40;;;1.87;;
18125;SDS011;53956;52.442;13.284;2023-03-31T14:39:01;4.80;;;1.97;;
18125;SDS011;53956;52.442;13.284;2023-03-31T14:41:30;2.10;;;1.80;;
18125;SDS011;53956;52.442;13.284;2023-03-31T14:43:59;3.43;;;1.90;;
18125;SDS011;53956;52.442;13.284;2023-03-31T14:46:28;2.37;;;1.70;;
18125;SDS011;53956;52.442;13.284;2023-03-31T14:48:57;2.20;;;1.83;;
18125;SDS011;53956;52.442;13.284;2023-03-31T14:51:24;2.90;;;1.90;;
18125;SDS011;53956;52.442;13.284;2023-03-31T14:53:56;2.83;;;1.80;;
18125;SDS011;53956;52.442;13.284;2023-03-31T14:56:26;4.57;;;1.93;;
18125;SDS011;53956;52.442;13.284;2023-03-31T14:58:58;4.33;;;2.10;;
18125;SDS011;53956;52.442;13.284;2023-03-31T15:01:27;4.53;;;2.40;;
18125;SDS011;53956;52.442;13.284;2023-03-31T15:03:58;2.30;;;1.77;;
18125;SDS011;53956;52.442;13.284;2023-03-31T15:06:29;3.60;;;1.90;;
18125;SDS011;53956;52.442;13.284;2023-03-31T15:08:59;2.87;;;1.80;;
18125;SDS011;53956;52.442;13.284;2023-03-31T15:11:29;2.67;;;1.83;;
18125;SDS011;53956;52.442;13.284;2023-03-31T15:13:57;4.27;;;2.00;;
18125;SDS011;53956;52.442;13.284;2023-03-31T15:16:29;3.90;;;2.17;;
18125;SDS011;53956;52.442;13.284;2023-03-31T15:18:58;4.57;;;2.00;;
18125;SDS011;53956;52.442;13.284;2023-03-31T15:21:27;4.17;;;2.00;;
18125;SDS011;53956;52.442;13.284;2023-03-31T15:23:57;2.00;;;1.80;;
18125;SDS011;53956;52.442;13.284;2023-03-31T15:26:24;3.70;;;2.00;;